createdAt,value
2018-09-29T00:00:23.329Z,10.30
2018-09-29T00:02:51.880Z,10.80
2018-09-29T00:05:20.471Z,9.73
2018-09-29T00:07:49.057Z,10.03
2018-09-29T00:10:17.635Z,6.90
2018-09-29T00:12:46.197Z,6.60
2018-09-29T00:15:14.747Z,6.27
2018-09-29T00:17:43.263Z,11.40
2018-09-29T00:20:11.766Z,9.20
2018-09-29T00:22:40.303Z,11.20
2018-09-29T00:25:08.871Z,9.67
2018-09-29T00:27:37.416Z,9.40
2018-09-29T00:30:05.888Z,8.80
2018-09-29T00:32:34.459Z,8.33
2018-09-29T00:35:02.985Z,9.47
2018-09-29T00:37:31.634Z,10.50
2018-09-29T00:40:00.165Z,10.53
2018-09-29T00:42:28.632Z,8.47
2018-09-29T00:44:57.090Z,8.43
2018-09-29T00:47:25.552Z,8.53
2018-09-29T00:49:53.998Z,8.70
2018-09-29T00:52:22.558Z,6.27
2018-09-29T00:54:51.116Z,7.83
2018-09-29T00:57:19.736Z,6.60
2018-09-29T00:59:48.352Z,15.80
2018-09-29T01:02:16.894Z,7.57
2018-09-29T01:04:49.054Z,7.60
2018-09-29T01:07:17.659Z,6.90
2018-09-29T01:09:46.114Z,9.17
2018-09-29T01:12:14.751Z,8.90
2018-09-29T01:14:43.396Z,5.60
2018-09-29T01:17:11.839Z,7.27
2018-09-29T01:19:40.335Z,10.67
2018-09-29T01:22:08.790Z,7.20
2018-09-29T01:24:37.317Z,7.87
2018-09-29T01:27:05.858Z,6.80
2018-09-29T01:29:34.405Z,13.73
2018-09-29T01:32:02.879Z,13.37
2018-09-29T01:34:31.348Z,8.27
2018-09-29T01:36:59.889Z,10.03
2018-09-29T01:39:28.413Z,8.90
2018-09-29T01:41:56.846Z,9.67
2018-09-29T01:44:25.269Z,8.20
2018-09-29T01:46:53.686Z,7.97
2018-09-29T01:49:22.121Z,11.37
2018-09-29T01:51:50.539Z,10.23
2018-09-29T01:54:18.988Z,11.40
2018-09-29T01:56:47.534Z,8.53
2018-09-29T01:59:16.011Z,5.50
2018-09-29T02:01:44.493Z,10.90
2018-09-29T02:04:12.913Z,9.73
2018-09-29T02:06:41.463Z,9.63
2018-09-29T02:09:10.148Z,9.57
2018-09-29T02:11:38.613Z,9.33
2018-09-29T02:14:07.092Z,8.13
2018-09-29T02:16:35.635Z,7.67
2018-09-29T02:19:04.097Z,7.97
2018-09-29T02:21:32.593Z,7.27
2018-09-29T02:24:01.065Z,6.37
2018-09-29T02:26:29.503Z,7.70
2018-09-29T02:28:58.076Z,9.03
2018-09-29T02:31:26.591Z,6.63
2018-09-29T02:33:55.447Z,11.03
2018-09-29T02:36:24.362Z,8.50
2018-09-29T02:38:53.055Z,9.70
2018-09-29T02:41:21.528Z,8.23
2018-09-29T02:43:50.162Z,7.27
2018-09-29T02:46:18.695Z,8.77
2018-09-29T02:48:47.236Z,7.60
2018-09-29T02:51:15.827Z,5.77
2018-09-29T02:53:44.431Z,6.40
2018-09-29T02:56:12.972Z,5.93
2018-09-29T02:58:41.626Z,6.20
2018-09-29T03:01:10.236Z,5.67
2018-09-29T03:03:38.705Z,6.13
2018-09-29T03:06:07.390Z,7.10
2018-09-29T03:08:35.823Z,8.57
2018-09-29T03:11:04.305Z,10.23
2018-09-29T03:13:32.714Z,10.00
2018-09-29T03:16:01.180Z,10.90
2018-09-29T03:18:29.616Z,9.37
2018-09-29T03:20:58.057Z,8.67
2018-09-29T03:23:26.496Z,6.47
2018-09-29T03:25:54.918Z,8.60
2018-09-29T03:28:23.369Z,14.33
2018-09-29T03:30:51.796Z,9.00
2018-09-29T03:33:20.215Z,4.80
2018-09-29T03:35:48.644Z,6.67
2018-09-29T03:38:17.426Z,9.00
2018-09-29T03:40:45.844Z,8.47
2018-09-29T03:43:14.544Z,6.77
2018-09-29T03:45:42.994Z,8.47
2018-09-29T03:48:11.450Z,11.47
2018-09-29T03:50:39.886Z,11.93
2018-09-29T03:53:08.582Z,10.80
2018-09-29T03:55:37.032Z,11.70
2018-09-29T03:58:05.497Z,10.93
2018-09-29T04:00:33.958Z,5.93
2018-09-29T04:03:02.541Z,5.60
2018-09-29T04:05:31.330Z,7.13
2018-09-29T04:08:00.319Z,6.37
2018-09-29T04:10:29.038Z,5.87
2018-09-29T04:12:57.546Z,4.97
2018-09-29T04:15:26.192Z,6.67
2018-09-29T04:17:54.878Z,5.80
2018-09-29T04:20:24.022Z,7.40
2018-09-29T04:22:52.602Z,7.07
2018-09-29T04:25:21.286Z,6.93
2018-09-29T04:27:49.913Z,9.40
2018-09-29T04:30:18.845Z,8.67
2018-09-29T04:32:47.749Z,7.17
2018-09-29T04:35:16.376Z,6.33
2018-09-29T04:37:45.111Z,9.40
2018-09-29T04:40:14.388Z,8.97
2018-09-29T04:42:43.286Z,11.83
2018-09-29T04:45:12.450Z,6.97
2018-09-29T04:47:41.477Z,5.50
2018-09-29T04:50:10.361Z,10.20
2018-09-29T04:52:38.995Z,7.40
2018-09-29T04:55:07.546Z,5.83
2018-09-29T04:57:36.086Z,4.23
2018-09-29T05:00:04.724Z,8.13
2018-09-29T05:02:33.402Z,11.23
2018-09-29T05:05:02.128Z,8.93
2018-09-29T05:07:30.925Z,9.80
2018-09-29T05:09:59.601Z,6.57
2018-09-29T05:12:28.129Z,8.13
2018-09-29T05:14:57.120Z,15.73
2018-09-29T05:17:25.746Z,7.93
2018-09-29T05:19:54.380Z,5.57
2018-09-29T05:22:23.003Z,9.00
2018-09-29T05:24:51.719Z,10.70
2018-09-29T05:27:20.318Z,6.23
2018-09-29T05:29:48.806Z,8.20
2018-09-29T05:32:17.303Z,7.27
2018-09-29T05:34:46.195Z,10.90
2018-09-29T05:37:14.859Z,7.63
2018-09-29T05:39:43.366Z,8.90
2018-09-29T05:42:11.980Z,11.07
2018-09-29T05:44:40.893Z,12.73
2018-09-29T05:47:09.486Z,8.77
2018-09-29T05:49:37.999Z,11.47
2018-09-29T05:52:06.552Z,9.87
2018-09-29T05:54:35.422Z,8.90
2018-09-29T05:57:04.311Z,7.93
2018-09-29T05:59:33.120Z,6.00
2018-09-29T06:02:01.898Z,7.73
2018-09-29T06:04:30.602Z,9.60
2018-09-29T06:06:59.747Z,9.03
2018-09-29T06:09:29.217Z,9.10
2018-09-29T06:11:58.944Z,7.53
2018-09-29T06:14:28.371Z,7.10
2018-09-29T06:16:57.553Z,8.40
2018-09-29T06:19:26.545Z,11.03
2018-09-29T06:21:55.154Z,8.53
2018-09-29T06:24:26.276Z,8.53
2018-09-29T06:26:55.186Z,6.70
2018-09-29T06:29:24.059Z,9.97
2018-09-29T06:31:52.827Z,7.27
2018-09-29T06:34:21.847Z,8.93
2018-09-29T06:36:50.925Z,8.03
2018-09-29T06:39:19.554Z,6.73
2018-09-29T06:41:48.191Z,13.17
2018-09-29T06:44:16.792Z,11.23
2018-09-29T06:46:45.633Z,9.47
2018-09-29T06:49:14.022Z,10.07
2018-09-29T06:51:42.611Z,8.23
2018-09-29T06:54:11.315Z,10.47
2018-09-29T06:56:39.931Z,9.57
2018-09-29T06:59:08.467Z,9.10
2018-09-29T07:01:37.008Z,9.90
2018-09-29T07:04:05.690Z,10.47
2018-09-29T07:06:34.207Z,10.13
2018-09-29T07:09:03.056Z,14.27
2018-09-29T07:11:31.753Z,11.23
2018-09-29T07:14:00.344Z,11.27
2018-09-29T07:16:28.858Z,10.67
2018-09-29T07:18:57.559Z,9.83
2018-09-29T07:21:26.163Z,7.77
2018-09-29T07:23:54.870Z,8.37
2018-09-29T07:26:23.479Z,8.57
2018-09-29T07:28:51.715Z,10.27
2018-09-29T07:31:20.401Z,10.47
2018-09-29T07:33:48.987Z,11.33
2018-09-29T07:36:17.655Z,6.90
2018-09-29T07:38:46.212Z,9.93
2018-09-29T07:41:14.857Z,9.37
2018-09-29T07:43:43.692Z,6.30
2018-09-29T07:46:12.290Z,7.03
2018-09-29T07:48:40.952Z,9.50
2018-09-29T07:51:09.792Z,8.90
2018-09-29T07:53:38.843Z,8.28
2018-09-29T07:56:07.467Z,13.13
2018-09-29T07:58:36.009Z,6.08
2018-09-29T08:01:04.557Z,7.83
2018-09-29T08:03:33.432Z,8.83
2018-09-29T08:06:06.150Z,8.23
2018-09-29T08:08:35.042Z,10.72
2018-09-29T08:11:03.680Z,7.72
2018-09-29T08:13:39.537Z,9.75
2018-09-29T08:16:08.707Z,6.60
2018-09-29T08:18:37.233Z,8.30
2018-09-29T08:21:05.899Z,9.70
2018-09-29T08:23:34.680Z,8.03
2018-09-29T08:26:03.476Z,8.75
2018-09-29T08:28:32.094Z,13.40
2018-09-29T08:31:00.552Z,6.75
2018-09-29T08:33:29.125Z,9.08
2018-09-29T08:35:58.074Z,7.62
2018-09-29T08:38:26.608Z,8.85
2018-09-29T08:40:55.282Z,9.45
2018-09-29T08:43:23.947Z,8.43
2018-09-29T08:45:52.429Z,9.75
2018-09-29T08:48:21.137Z,8.50
2018-09-29T08:50:49.859Z,9.20
2018-09-29T08:53:19.049Z,8.65
2018-09-29T08:55:47.528Z,6.78
2018-09-29T08:58:16.369Z,8.53
2018-09-29T09:00:45.025Z,7.65
2018-09-29T09:03:14.062Z,9.53
2018-09-29T09:05:42.648Z,9.15
2018-09-29T09:08:11.108Z,8.30
2018-09-29T09:10:39.539Z,8.20
2018-09-29T09:13:08.377Z,8.28
2018-09-29T09:15:37.297Z,9.35
2018-09-29T09:18:06.002Z,7.33
2018-09-29T09:20:34.754Z,8.63
2018-09-29T09:23:03.247Z,6.08
2018-09-29T09:25:31.783Z,5.10
2018-09-29T09:28:00.382Z,7.03
2018-09-29T09:30:28.808Z,4.87
2018-09-29T09:32:57.256Z,9.45
2018-09-29T09:35:25.669Z,9.88
2018-09-29T09:37:54.226Z,10.35
2018-09-29T09:40:22.666Z,5.87
2018-09-29T09:42:51.245Z,10.90
2018-09-29T09:45:19.773Z,6.87
2018-09-29T09:47:48.359Z,5.58
2018-09-29T09:50:16.790Z,5.80
2018-09-29T09:52:45.218Z,5.22
2018-09-29T09:55:13.748Z,5.05
2018-09-29T09:57:42.562Z,3.98
2018-09-29T10:00:11.391Z,7.45
2018-09-29T10:02:45.142Z,5.65
2018-09-29T10:05:13.775Z,7.40
2018-09-29T10:07:42.468Z,6.90
2018-09-29T10:10:11.026Z,6.33
2018-09-29T10:12:39.492Z,6.55
2018-09-29T10:15:08.198Z,4.78
2018-09-29T10:17:36.838Z,5.58
2018-09-29T10:20:05.838Z,6.05
2018-09-29T10:22:34.300Z,6.15
2018-09-29T10:25:02.832Z,7.58
2018-09-29T10:27:31.627Z,6.65
2018-09-29T10:30:00.127Z,7.37
2018-09-29T10:32:28.560Z,6.45
2018-09-29T10:34:57.125Z,4.78
2018-09-29T10:37:25.590Z,4.62
2018-09-29T10:39:54.199Z,5.20
2018-09-29T10:42:22.812Z,6.45
2018-09-29T10:44:51.351Z,5.85
2018-09-29T10:47:19.815Z,5.08
2018-09-29T10:49:48.479Z,6.25
2018-09-29T10:52:16.950Z,5.83
2018-09-29T10:54:46.083Z,5.17
2018-09-29T10:57:14.648Z,6.90
2018-09-29T10:59:43.404Z,8.75
2018-09-29T11:02:12.100Z,5.85
2018-09-29T11:04:41.122Z,4.65
2018-09-29T11:07:10.039Z,8.10
2018-09-29T11:09:38.820Z,6.80
2018-09-29T11:12:07.697Z,4.12
2018-09-29T11:14:36.279Z,5.42
2018-09-29T11:17:04.789Z,4.05
2018-09-29T11:19:33.353Z,6.70
2018-09-29T11:22:02.001Z,5.78
2018-09-29T11:24:30.641Z,4.67
2018-09-29T11:26:59.139Z,6.40
2018-09-29T11:29:27.588Z,7.97
2018-09-29T11:31:56.062Z,6.33
2018-09-29T11:34:25.309Z,5.70
2018-09-29T11:36:53.776Z,6.27
2018-09-29T11:39:22.300Z,3.57
2018-09-29T11:41:51.167Z,3.33
2018-09-29T11:44:20.090Z,4.80
2018-09-29T11:46:48.744Z,8.17
2018-09-29T11:49:17.761Z,3.83
2018-09-29T11:51:47.250Z,5.40
2018-09-29T11:54:15.866Z,6.63
2018-09-29T11:56:44.652Z,6.23
2018-09-29T11:59:13.337Z,3.03
2018-09-29T12:01:42.118Z,10.97
2018-09-29T12:04:10.645Z,5.73
2018-09-29T12:06:39.077Z,4.63
2018-09-29T12:09:10.679Z,4.23
2018-09-29T12:11:39.112Z,4.93
2018-09-29T12:14:08.022Z,5.93
2018-09-29T12:16:36.690Z,6.17
2018-09-29T12:19:06.333Z,6.10
2018-09-29T12:21:34.820Z,5.47
2018-09-29T12:24:03.245Z,6.63
2018-09-29T12:26:31.712Z,8.00
2018-09-29T12:29:00.186Z,4.93
2018-09-29T12:31:29.142Z,5.40
2018-09-29T12:33:57.636Z,4.47
2018-09-29T12:36:26.190Z,6.07
2018-09-29T12:38:55.042Z,4.90
2018-09-29T12:41:23.494Z,4.23
2018-09-29T12:43:51.926Z,6.10
2018-09-29T12:46:20.659Z,5.47
2018-09-29T12:48:49.325Z,4.47
2018-09-29T12:51:17.818Z,3.93
2018-09-29T12:53:46.505Z,4.23
2018-09-29T12:56:15.086Z,4.57
2018-09-29T12:58:43.556Z,4.80
2018-09-29T13:01:11.988Z,4.00
2018-09-29T13:03:40.455Z,3.30
2018-09-29T13:06:08.882Z,4.30
2018-09-29T13:08:37.706Z,3.87
2018-09-29T13:11:06.746Z,2.57
2018-09-29T13:13:36.454Z,9.83
2018-09-29T13:16:05.134Z,3.47
2018-09-29T13:18:33.592Z,3.87
2018-09-29T13:21:02.061Z,5.47
2018-09-29T13:23:30.541Z,4.43
2018-09-29T13:25:58.983Z,5.47
2018-09-29T13:28:27.741Z,6.73
2018-09-29T13:30:56.397Z,4.30
2018-09-29T13:33:25.073Z,3.50
2018-09-29T13:35:53.825Z,4.03
2018-09-29T13:38:22.447Z,2.20
2018-09-29T13:40:51.152Z,4.00
2018-09-29T13:43:19.833Z,3.97
2018-09-29T13:45:48.830Z,4.13
2018-09-29T13:48:17.301Z,3.70
2018-09-29T13:50:45.838Z,2.53
2018-09-29T13:53:14.423Z,4.63
2018-09-29T13:55:42.948Z,7.33
2018-09-29T13:58:11.590Z,5.93
2018-09-29T14:00:40.295Z,3.97
2018-09-29T14:03:08.861Z,8.17
2018-09-29T14:05:37.467Z,5.00
2018-09-29T14:08:05.927Z,5.60
2018-09-29T14:10:34.394Z,6.07
2018-09-29T14:13:02.971Z,3.73
2018-09-29T14:15:31.456Z,3.67
2018-09-29T14:17:59.902Z,5.70
2018-09-29T14:20:28.654Z,5.13
2018-09-29T14:22:57.089Z,5.87
2018-09-29T14:25:25.529Z,6.80
2018-09-29T14:27:53.949Z,4.67
2018-09-29T14:30:22.542Z,5.60
2018-09-29T14:32:50.986Z,6.30
2018-09-29T14:35:19.551Z,3.50
2018-09-29T14:37:48.215Z,5.33
2018-09-29T14:40:16.682Z,5.60
2018-09-29T14:42:45.151Z,6.13
2018-09-29T14:45:13.635Z,4.13
2018-09-29T14:47:42.098Z,6.23
2018-09-29T14:50:10.652Z,7.03
2018-09-29T14:52:39.132Z,5.43
2018-09-29T14:55:07.602Z,4.90
2018-09-29T14:57:36.173Z,6.17
2018-09-29T15:00:04.860Z,3.47
2018-09-29T15:02:33.331Z,5.40
2018-09-29T15:05:01.789Z,3.67
2018-09-29T15:07:30.214Z,6.67
2018-09-29T15:09:58.719Z,4.23
2018-09-29T15:12:27.179Z,3.20
2018-09-29T15:14:55.829Z,3.50
2018-09-29T15:17:24.408Z,6.77
2018-09-29T15:19:52.869Z,4.60
2018-09-29T15:22:21.292Z,5.57
2018-09-29T15:24:49.708Z,6.27
2018-09-29T15:27:18.159Z,3.80
2018-09-29T15:29:46.576Z,3.90
2018-09-29T15:32:15.168Z,2.07
2018-09-29T15:34:43.607Z,3.40
2018-09-29T15:37:12.042Z,4.83
2018-09-29T15:39:40.899Z,5.77
2018-09-29T15:42:09.451Z,3.70
2018-09-29T15:44:37.960Z,7.33
2018-09-29T15:47:06.572Z,3.90
2018-09-29T15:49:35.127Z,4.23
2018-09-29T15:52:03.608Z,2.87
2018-09-29T15:54:32.071Z,3.50
2018-09-29T15:57:00.711Z,3.73
2018-09-29T15:59:29.220Z,4.50
2018-09-29T16:01:57.668Z,5.27
2018-09-29T16:04:26.103Z,11.10
2018-09-29T16:06:54.533Z,4.43
2018-09-29T16:09:23.033Z,4.27
2018-09-29T16:11:55.728Z,6.13
2018-09-29T16:14:24.158Z,3.90
2018-09-29T16:16:52.648Z,4.30
2018-09-29T16:19:21.116Z,3.50
2018-09-29T16:21:49.637Z,4.67
2018-09-29T16:24:18.047Z,3.97
2018-09-29T16:26:46.456Z,5.43
2018-09-29T16:29:14.906Z,4.70
2018-09-29T16:31:43.345Z,3.40
2018-09-29T16:34:12.573Z,3.57
2018-09-29T16:36:40.987Z,4.63
2018-09-29T16:39:11.640Z,1.97
2018-09-29T16:41:40.058Z,4.30
2018-09-29T16:44:08.523Z,6.67
2018-09-29T16:46:36.961Z,5.23
2018-09-29T16:49:05.497Z,4.67
2018-09-29T16:51:34.212Z,2.27
2018-09-29T16:54:02.657Z,4.43
2018-09-29T16:56:31.359Z,6.83
2018-09-29T16:59:02.475Z,8.53
2018-09-29T17:01:31.135Z,10.97
2018-09-29T17:03:59.820Z,25.27
2018-09-29T17:06:28.340Z,39.83
2018-09-29T17:08:57.023Z,23.27
2018-09-29T17:11:25.544Z,13.27
2018-09-29T17:13:54.286Z,9.40
2018-09-29T17:16:24.315Z,7.50
2018-09-29T17:18:52.777Z,4.73
2018-09-29T17:21:21.994Z,6.13
2018-09-29T17:23:54.088Z,5.67
2018-09-29T17:26:22.902Z,5.90
2018-09-29T17:28:51.780Z,3.10
2018-09-29T17:31:20.665Z,5.93
2018-09-29T17:33:51.079Z,5.20
2018-09-29T17:36:19.839Z,10.20
2018-09-29T17:38:49.542Z,5.73
2018-09-29T17:41:18.350Z,8.13
2018-09-29T17:43:47.138Z,6.33
2018-09-29T17:46:16.177Z,5.07
2018-09-29T17:48:44.808Z,6.17
2018-09-29T17:51:13.438Z,4.00
2018-09-29T17:53:43.086Z,4.17
2018-09-29T17:56:11.960Z,6.13
2018-09-29T17:58:40.554Z,3.37
2018-09-29T18:01:09.217Z,5.33
2018-09-29T18:03:38.082Z,3.87
2018-09-29T18:06:07.529Z,8.20
2018-09-29T18:08:36.478Z,4.87
2018-09-29T18:11:05.437Z,7.73
2018-09-29T18:13:34.549Z,5.90
2018-09-29T18:16:03.388Z,7.57
2018-09-29T18:18:32.059Z,6.07
2018-09-29T18:21:00.761Z,6.43
2018-09-29T18:23:29.758Z,4.87
2018-09-29T18:25:58.777Z,3.87
2018-09-29T18:28:28.130Z,6.83
2018-09-29T18:30:57.043Z,10.93
2018-09-29T18:33:25.668Z,13.43
2018-09-29T18:35:54.496Z,13.20
2018-09-29T18:38:23.058Z,7.50
2018-09-29T18:40:51.567Z,6.77
2018-09-29T18:43:20.141Z,5.80
2018-09-29T18:45:49.074Z,6.07
2018-09-29T18:48:17.608Z,5.53
2018-09-29T18:50:46.262Z,7.07
2018-09-29T18:53:14.943Z,8.77
2018-09-29T18:55:43.926Z,9.43
2018-09-29T18:58:12.752Z,6.70
2018-09-29T19:00:41.545Z,10.87
2018-09-29T19:03:10.025Z,8.20
2018-09-29T19:05:38.762Z,8.23
2018-09-29T19:08:07.660Z,7.20
2018-09-29T19:10:36.953Z,11.30
2018-09-29T19:13:06.689Z,12.30
2018-09-29T19:15:35.615Z,13.50
2018-09-29T19:18:04.725Z,18.00
2018-09-29T19:20:33.265Z,11.20
2018-09-29T19:23:02.321Z,10.63
2018-09-29T19:25:30.990Z,10.90
2018-09-29T19:27:59.664Z,8.57
2018-09-29T19:30:28.187Z,8.30
2018-09-29T19:32:56.706Z,9.90
2018-09-29T19:35:25.289Z,12.33
2018-09-29T19:37:54.153Z,9.77
2018-09-29T19:40:23.170Z,15.20
2018-09-29T19:42:51.776Z,15.77
2018-09-29T19:45:20.419Z,14.93
2018-09-29T19:47:49.018Z,9.47
2018-09-29T19:50:17.954Z,15.13
2018-09-29T19:52:46.846Z,10.37
2018-09-29T19:55:15.412Z,11.67
2018-09-29T19:57:44.520Z,9.73
2018-09-29T20:00:13.202Z,12.57
2018-09-29T20:02:41.860Z,10.97
2018-09-29T20:05:10.316Z,12.33
2018-09-29T20:07:39.018Z,11.83
2018-09-29T20:10:07.924Z,12.00
2018-09-29T20:12:36.834Z,12.37
2018-09-29T20:15:05.579Z,12.17
2018-09-29T20:17:34.141Z,13.63
2018-09-29T20:20:02.613Z,10.27
2018-09-29T20:22:31.115Z,10.10
2018-09-29T20:24:59.577Z,14.57
2018-09-29T20:27:28.001Z,9.23
2018-09-29T20:29:56.486Z,15.23
2018-09-29T20:32:25.035Z,15.17
2018-09-29T20:34:53.482Z,16.60
2018-09-29T20:37:21.999Z,14.83
2018-09-29T20:39:50.389Z,11.40
2018-09-29T20:42:18.926Z,13.00
2018-09-29T20:44:47.600Z,13.57
2018-09-29T20:47:16.143Z,14.40
2018-09-29T20:49:44.814Z,11.30
2018-09-29T20:52:13.227Z,11.93
2018-09-29T20:54:41.689Z,11.27
2018-09-29T20:57:11.059Z,10.37
2018-09-29T20:59:39.539Z,14.40
2018-09-29T21:02:08.313Z,7.90
2018-09-29T21:04:37.026Z,9.70
2018-09-29T21:07:05.653Z,7.60
2018-09-29T21:09:34.265Z,9.43
2018-09-29T21:12:02.971Z,10.23
2018-09-29T21:14:31.504Z,14.83
2018-09-29T21:17:00.255Z,8.13
2018-09-29T21:19:28.793Z,7.97
2018-09-29T21:21:57.299Z,8.70
2018-09-29T21:24:25.821Z,9.97
2018-09-29T21:26:54.441Z,11.57
2018-09-29T21:29:23.251Z,10.10
2018-09-29T21:31:52.288Z,7.53
2018-09-29T21:34:20.855Z,8.77
2018-09-29T21:36:49.483Z,9.63
2018-09-29T21:39:18.036Z,11.40
2018-09-29T21:41:46.716Z,7.97
2018-09-29T21:44:15.284Z,8.80
2018-09-29T21:46:43.793Z,8.33
2018-09-29T21:49:12.398Z,6.43
2018-09-29T21:51:40.908Z,7.10
2018-09-29T21:54:09.651Z,8.93
2018-09-29T21:56:38.393Z,9.10
2018-09-29T21:59:07.044Z,7.57
2018-09-29T22:01:35.733Z,8.63
2018-09-29T22:04:04.608Z,9.37
2018-09-29T22:06:33.108Z,8.50
2018-09-29T22:09:01.569Z,5.40
2018-09-29T22:11:30.198Z,5.87
2018-09-29T22:13:58.664Z,6.23
2018-09-29T22:16:27.101Z,7.97
2018-09-29T22:18:55.536Z,7.47
2018-09-29T22:21:24.180Z,7.47
2018-09-29T22:23:52.636Z,6.57
2018-09-29T22:26:21.108Z,6.30
2018-09-29T22:28:49.559Z,6.33
2018-09-29T22:31:17.988Z,7.60
2018-09-29T22:33:46.569Z,4.70
2018-09-29T22:36:15.376Z,5.20
2018-09-29T22:38:43.983Z,8.67
2018-09-29T22:41:12.599Z,4.13
2018-09-29T22:43:41.062Z,5.37
2018-09-29T22:46:09.710Z,6.93
2018-09-29T22:48:38.175Z,8.10
2018-09-29T22:51:06.768Z,5.17
2018-09-29T22:53:35.211Z,7.13
2018-09-29T22:56:03.666Z,9.47
2018-09-29T22:58:32.239Z,5.07
2018-09-29T23:01:00.682Z,6.57
2018-09-29T23:03:29.199Z,8.00
2018-09-29T23:05:57.611Z,6.80
2018-09-29T23:08:26.065Z,9.40
2018-09-29T23:10:54.575Z,8.07
2018-09-29T23:13:23.388Z,7.43
2018-09-29T23:15:51.926Z,7.40
2018-09-29T23:18:20.478Z,7.07
2018-09-29T23:20:48.976Z,4.97
2018-09-29T23:23:17.406Z,6.40
2018-09-29T23:25:46.110Z,7.00
2018-09-29T23:28:14.541Z,4.33
2018-09-29T23:30:43.011Z,5.33
2018-09-29T23:33:11.628Z,5.90
2018-09-29T23:35:40.056Z,9.53
2018-09-29T23:38:08.496Z,5.80
2018-09-29T23:40:36.949Z,6.30
2018-09-29T23:43:05.460Z,5.03
2018-09-29T23:45:33.914Z,9.27
2018-09-29T23:48:02.373Z,5.73
2018-09-29T23:50:30.837Z,7.10
2018-09-29T23:52:59.444Z,5.90
2018-09-29T23:55:27.998Z,7.40
2018-09-29T23:57:56.466Z,8.93
